sensor_id;sensor_type;location;lat;lon;timestamp;pressure;altitude;pressure_sealevel;temperature;humidity
54948;BME280;41113;41.882;12.530;2023-03-13T00:00:58;101281.59;;;14.06;84.23
54948;BME280;41113;41.882;12.530;2023-03-13T00:03:24;101289.00;;;14.04;84.53
54948;BME280;41113;41.882;12.530;2023-03-13T00:05:54;101289.44;;;13.99;84.93
54948;BME280;41113;41.882;12.530;2023-03-13T00:08:20;101293.66;;;13.92;84.49
54948;BME280;41113;41.882;12.530;2023-03-13T00:10:45;101300.47;;;13.96;84.03
54948;BME280;41113;41.882;12.530;2023-03-13T00:13:12;101315.00;;;14.05;83.39
54948;BME280;41113;41.882;12.530;2023-03-13T00:15:37;101313.28;;;14.13;82.68
54948;BME280;41113;41.882;12.530;2023-03-13T00:18:03;101326.06;;;14.21;81.92
54948;BME280;41113;41.882;12.530;2023-03-13T00:20:28;101332.03;;;14.24;81.40
54948;BME280;41113;41.882;12.530;2023-03-13T00:22:54;101337.28;;;14.26;80.95
54948;BME280;41113;41.882;12.530;2023-03-13T00:25:19;101343.69;;;14.25;80.94
54948;BME280;41113;41.882;12.530;2023-03-13T00:27:44;101348.78;;;14.28;80.75
54948;BME280;41113;41.882;12.530;2023-03-13T00:30:10;101345.94;;;14.29;80.35
54948;BME280;41113;41.882;12.530;2023-03-13T00:32:42;101346.78;;;14.30;80.08
54948;BME280;41113;41.882;12.530;2023-03-13T00:35:10;101354.66;;;14.33;79.91
54948;BME280;41113;41.882;12.530;2023-03-13T00:37:35;101351.09;;;14.32;80.00
54948;BME280;41113;41.882;12.530;2023-03-13T00:40:00;101352.25;;;14.01;81.60
54948;BME280;41113;41.882;12.530;2023-03-13T00:42:26;101360.75;;;13.77;82.67
54948;BME280;41113;41.882;12.530;2023-03-13T00:44:51;101366.41;;;13.64;83.33
54948;BME280;41113;41.882;12.530;2023-03-13T00:47:16;101365.53;;;13.45;84.04
54948;BME280;41113;41.882;12.530;2023-03-13T00:49:42;101357.84;;;13.40;84.08
54948;BME280;41113;41.882;12.530;2023-03-13T00:52:07;101354.09;;;13.31;84.49
54948;BME280;41113;41.882;12.530;2023-03-13T00:54:33;101347.00;;;13.30;84.09
54948;BME280;41113;41.882;12.530;2023-03-13T00:56:58;101343.88;;;13.25;84.61
54948;BME280;41113;41.882;12.530;2023-03-13T00:59:23;101347.56;;;13.24;84.68
54948;BME280;41113;41.882;12.530;2023-03-13T01:01:49;101346.72;;;13.24;84.33
54948;BME280;41113;41.882;12.530;2023-03-13T01:04:14;101350.53;;;13.21;84.08
54948;BME280;41113;41.882;12.530;2023-03-13T01:06:40;101351.16;;;13.04;84.30
54948;BME280;41113;41.882;12.530;2023-03-13T01:09:09;101357.06;;;12.98;84.23
54948;BME280;41113;41.882;12.530;2023-03-13T01:11:37;101351.06;;;13.15;83.46
54948;BME280;41113;41.882;12.530;2023-03-13T01:14:05;101349.97;;;13.27;82.54
54948;BME280;41113;41.882;12.530;2023-03-13T01:16:33;101351.88;;;13.36;81.97
54948;BME280;41113;41.882;12.530;2023-03-13T01:19:00;101345.63;;;13.46;81.34
54948;BME280;41113;41.882;12.530;2023-03-13T01:21:27;101348.50;;;13.54;80.84
54948;BME280;41113;41.882;12.530;2023-03-13T01:23:53;101353.31;;;13.60;80.41
54948;BME280;41113;41.882;12.530;2023-03-13T01:26:19;101351.63;;;13.59;79.87
54948;BME280;41113;41.882;12.530;2023-03-13T01:28:45;101355.31;;;13.58;79.96
54948;BME280;41113;41.882;12.530;2023-03-13T01:33:36;101354.75;;;13.64;79.68
54948;BME280;41113;41.882;12.530;2023-03-13T01:36:02;101351.63;;;13.59;79.44
54948;BME280;41113;41.882;12.530;2023-03-13T01:38:28;101355.88;;;13.52;79.68
54948;BME280;41113;41.882;12.530;2023-03-13T01:40:53;101355.88;;;13.52;79.54
54948;BME280;41113;41.882;12.530;2023-03-13T01:43:24;101351.88;;;13.36;79.75
54948;BME280;41113;41.882;12.530;2023-03-13T01:45:53;101360.13;;;13.45;79.63
54948;BME280;41113;41.882;12.530;2023-03-13T01:50:55;101359.63;;;12.99;80.80
54948;BME280;41113;41.882;12.530;2023-03-13T01:53:23;101354.72;;;12.74;81.73
54948;BME280;41113;41.882;12.530;2023-03-13T01:55:50;101360.75;;;12.66;82.19
54948;BME280;41113;41.882;12.530;2023-03-13T01:58:16;101357.41;;;12.53;82.54
54948;BME280;41113;41.882;12.530;2023-03-13T02:00:42;101356.63;;;12.62;82.28
54948;BME280;41113;41.882;12.530;2023-03-13T02:03:12;101353.47;;;12.57;82.35
54948;BME280;41113;41.882;12.530;2023-03-13T02:05:40;101355.03;;;12.60;82.16
54948;BME280;41113;41.882;12.530;2023-03-13T02:08:11;101367.63;;;12.50;82.78
54948;BME280;41113;41.882;12.530;2023-03-13T02:10:47;101377.53;;;12.49;82.47
54948;BME280;41113;41.882;12.530;2023-03-13T02:13:15;101373.31;;;12.56;82.26
54948;BME280;41113;41.882;12.530;2023-03-13T02:15:41;101379.97;;;12.52;81.91
54948;BME280;41113;41.882;12.530;2023-03-13T02:18:07;101383.88;;;12.27;82.38
54948;BME280;41113;41.882;12.530;2023-03-13T02:20:32;101378.00;;;12.01;83.68
54948;BME280;41113;41.882;12.530;2023-03-13T02:23:09;101381.69;;;12.00;83.96
54948;BME280;41113;41.882;12.530;2023-03-13T02:25:48;101376.81;;;11.94;83.54
54948;BME280;41113;41.882;12.530;2023-03-13T02:28:19;101377.78;;;12.04;83.38
54948;BME280;41113;41.882;12.530;2023-03-13T02:30:46;101385.16;;;11.91;83.45
54948;BME280;41113;41.882;12.530;2023-03-13T02:33:13;101384.88;;;12.05;82.81
54948;BME280;41113;41.882;12.530;2023-03-13T02:35:39;101389.00;;;12.09;82.47
54948;BME280;41113;41.882;12.530;2023-03-13T02:38:09;101384.41;;;11.89;83.36
54948;BME280;41113;41.882;12.530;2023-03-13T02:40:41;101378.59;;;11.73;84.32
54948;BME280;41113;41.882;12.530;2023-03-13T02:43:11;101389.53;;;11.92;83.84
54948;BME280;41113;41.882;12.530;2023-03-13T02:45:38;101384.16;;;11.92;83.29
54948;BME280;41113;41.882;12.530;2023-03-13T02:48:04;101381.53;;;11.81;84.02
54948;BME280;41113;41.882;12.530;2023-03-13T02:50:30;101389.09;;;11.76;83.63
54948;BME280;41113;41.882;12.530;2023-03-13T02:53:04;101386.72;;;11.94;83.17
54948;BME280;41113;41.882;12.530;2023-03-13T02:55:35;101376.53;;;12.08;82.36
54948;BME280;41113;41.882;12.530;2023-03-13T02:58:03;101373.41;;;11.92;82.72
54948;BME280;41113;41.882;12.530;2023-03-13T03:00:29;101382.91;;;11.96;82.76
54948;BME280;41113;41.882;12.530;2023-03-13T03:02:54;101383.81;;;11.86;83.56
54948;BME280;41113;41.882;12.530;2023-03-13T03:05:20;101386.38;;;11.87;83.33
54948;BME280;41113;41.882;12.530;2023-03-13T03:07:46;101390.16;;;11.96;82.93
54948;BME280;41113;41.882;12.530;2023-03-13T03:10:13;101389.03;;;11.98;82.88
54948;BME280;41113;41.882;12.530;2023-03-13T03:12:38;101389.28;;;11.95;82.71
54948;BME280;41113;41.882;12.530;2023-03-13T03:15:04;101383.25;;;12.03;83.12
54948;BME280;41113;41.882;12.530;2023-03-13T03:17:29;101386.66;;;11.84;83.52
54948;BME280;41113;41.882;12.530;2023-03-13T03:19:55;101385.41;;;11.77;83.96
54948;BME280;41113;41.882;12.530;2023-03-13T03:22:21;101397.16;;;11.65;84.57
54948;BME280;41113;41.882;12.530;2023-03-13T03:24:47;101396.56;;;11.61;84.45
54948;BME280;41113;41.882;12.530;2023-03-13T03:27:12;101398.19;;;11.52;85.33
54948;BME280;41113;41.882;12.530;2023-03-13T03:29:38;101403.81;;;11.49;85.39
54948;BME280;41113;41.882;12.530;2023-03-13T03:32:03;101402.63;;;11.42;86.07
54948;BME280;41113;41.882;12.530;2023-03-13T03:34:29;101408.34;;;11.49;85.57
54948;BME280;41113;41.882;12.530;2023-03-13T03:36:54;101401.63;;;11.32;85.71
54948;BME280;41113;41.882;12.530;2023-03-13T03:39:19;101406.28;;;11.19;86.79
54948;BME280;41113;41.882;12.530;2023-03-13T03:41:45;101403.59;;;11.19;86.61
54948;BME280;41113;41.882;12.530;2023-03-13T03:44:10;101408.50;;;11.14;86.81
54948;BME280;41113;41.882;12.530;2023-03-13T03:46:35;101410.06;;;11.05;87.36
54948;BME280;41113;41.882;12.530;2023-03-13T03:49:01;101403.22;;;11.01;88.10
54948;BME280;41113;41.882;12.530;2023-03-13T03:51:26;101409.94;;;10.96;88.06
54948;BME280;41113;41.882;12.530;2023-03-13T03:53:52;101407.97;;;10.98;88.60
54948;BME280;41113;41.882;12.530;2023-03-13T03:56:17;101408.22;;;10.95;89.05
54948;BME280;41113;41.882;12.530;2023-03-13T03:58:42;101416.44;;;11.15;87.76
54948;BME280;41113;41.882;12.530;2023-03-13T04:01:08;101415.81;;;11.23;87.13
54948;BME280;41113;41.882;12.530;2023-03-13T04:03:33;101417.53;;;11.13;87.04
54948;BME280;41113;41.882;12.530;2023-03-13T04:05:59;101424.38;;;11.39;86.42
54948;BME280;41113;41.882;12.530;2023-03-13T04:08:24;101429.84;;;11.38;85.54
54948;BME280;41113;41.882;12.530;2023-03-13T04:10:50;101425.56;;;10.90;87.59
54948;BME280;41113;41.882;12.530;2023-03-13T04:13:16;101425.94;;;10.97;88.09
54948;BME280;41113;41.882;12.530;2023-03-13T04:15:41;101432.69;;;11.25;87.06
54948;BME280;41113;41.882;12.530;2023-03-13T04:18:07;101435.38;;;11.25;86.45
54948;BME280;41113;41.882;12.530;2023-03-13T04:20:32;101427.28;;;11.03;87.10
54948;BME280;41113;41.882;12.530;2023-03-13T04:22:58;101433.19;;;11.08;87.16
54948;BME280;41113;41.882;12.530;2023-03-13T04:25:23;101435.00;;;11.30;86.20
54948;BME280;41113;41.882;12.530;2023-03-13T04:27:49;101437.69;;;11.41;85.59
54948;BME280;41113;41.882;12.530;2023-03-13T04:30:14;101436.94;;;11.28;85.53
54948;BME280;41113;41.882;12.530;2023-03-13T04:32:40;101439.75;;;11.37;85.48
54948;BME280;41113;41.882;12.530;2023-03-13T04:35:06;101438.31;;;11.44;84.91
54948;BME280;41113;41.882;12.530;2023-03-13T04:37:31;101433.53;;;11.37;84.87
54948;BME280;41113;41.882;12.530;2023-03-13T04:40:00;101430.81;;;11.59;84.66
54948;BME280;41113;41.882;12.530;2023-03-13T04:42:26;101432.16;;;11.65;83.87
54948;BME280;41113;41.882;12.530;2023-03-13T04:44:52;101434.97;;;11.74;83.37
54948;BME280;41113;41.882;12.530;2023-03-13T04:47:17;101439.16;;;11.78;82.68
54948;BME280;41113;41.882;12.530;2023-03-13T04:49:43;101441.06;;;11.88;82.38
54948;BME280;41113;41.882;12.530;2023-03-13T04:52:08;101439.22;;;11.88;81.88
54948;BME280;41113;41.882;12.530;2023-03-13T04:54:33;101441.94;;;11.88;81.63
54948;BME280;41113;41.882;12.530;2023-03-13T04:56:59;101442.78;;;11.89;81.72
54948;BME280;41113;41.882;12.530;2023-03-13T04:59:24;101441.94;;;11.88;81.40
54948;BME280;41113;41.882;12.530;2023-03-13T05:01:50;101441.69;;;11.91;81.44
54948;BME280;41113;41.882;12.530;2023-03-13T05:04:15;101438.59;;;11.96;81.27
54948;BME280;41113;41.882;12.530;2023-03-13T05:06:41;101433.72;;;11.90;81.13
54948;BME280;41113;41.882;12.530;2023-03-13T05:09:06;101436.81;;;11.85;81.13
54948;BME280;41113;41.882;12.530;2023-03-13T05:11:32;101439.63;;;11.83;81.47
54948;BME280;41113;41.882;12.530;2023-03-13T05:13:57;101432.78;;;11.79;80.87
54948;BME280;41113;41.882;12.530;2023-03-13T05:16:23;101438.31;;;11.44;81.77
54948;BME280;41113;41.882;12.530;2023-03-13T05:18:48;101452.34;;;11.37;82.69
54948;BME280;41113;41.882;12.530;2023-03-13T05:21:14;101445.50;;;11.55;82.30
54948;BME280;41113;41.882;12.530;2023-03-13T05:23:40;101456.63;;;11.62;81.51
54948;BME280;41113;41.882;12.530;2023-03-13T05:26:06;101459.19;;;11.63;81.22
54948;BME280;41113;41.882;12.530;2023-03-13T05:28:31;101456.97;;;11.68;81.04
54948;BME280;41113;41.882;12.530;2023-03-13T05:30:57;101462.25;;;11.81;80.67
54948;BME280;41113;41.882;12.530;2023-03-13T05:33:22;101466.88;;;11.90;79.80
54948;BME280;41113;41.882;12.530;2023-03-13T05:35:47;101466.63;;;11.93;79.39
54948;BME280;41113;41.882;12.530;2023-03-13T05:38:13;101467.63;;;11.81;78.76
54948;BME280;41113;41.882;12.530;2023-03-13T05:40:38;101462.72;;;11.64;79.31
54948;BME280;41113;41.882;12.530;2023-03-13T05:43:04;101473.03;;;11.47;80.34
54948;BME280;41113;41.882;12.530;2023-03-13T05:45:29;101470.81;;;11.52;80.11
54948;BME280;41113;41.882;12.530;2023-03-13T05:47:55;101475.09;;;11.55;80.14
54948;BME280;41113;41.882;12.530;2023-03-13T05:50:20;101492.13;;;11.78;79.27
54948;BME280;41113;41.882;12.530;2023-03-13T05:52:46;101487.66;;;11.99;78.28
54948;BME280;41113;41.882;12.530;2023-03-13T05:55:11;101487.84;;;12.19;77.11
54948;BME280;41113;41.882;12.530;2023-03-13T05:57:37;101487.78;;;12.41;75.77
54948;BME280;41113;41.882;12.530;2023-03-13T06:00:04;101492.81;;;12.66;75.01
54948;BME280;41113;41.882;12.530;2023-03-13T06:02:29;101497.44;;;12.75;74.44
54948;BME280;41113;41.882;12.530;2023-03-13T06:04:55;101495.94;;;13.03;72.59
54948;BME280;41113;41.882;12.530;2023-03-13T06:07:20;101499.88;;;12.78;73.91
54948;BME280;41113;41.882;12.530;2023-03-13T06:09:45;101505.72;;;13.25;73.26
54948;BME280;41113;41.882;12.530;2023-03-13T06:12:11;101500.47;;;13.03;72.84
54948;BME280;41113;41.882;12.530;2023-03-13T06:14:36;101520.50;;;13.31;72.76
54948;BME280;41113;41.882;12.530;2023-03-13T06:17:05;101515.44;;;12.96;71.28
54948;BME280;41113;41.882;12.530;2023-03-13T06:19:32;101523.19;;;12.68;72.67
54948;BME280;41113;41.882;12.530;2023-03-13T06:21:57;101520.16;;;12.62;73.78
54948;BME280;41113;41.882;12.530;2023-03-13T06:24:22;101524.25;;;12.45;74.49
54948;BME280;41113;41.882;12.530;2023-03-13T06:26:49;101514.47;;;12.76;74.39
54948;BME280;41113;41.882;12.530;2023-03-13T06:29:15;101509.75;;;12.57;73.97
54948;BME280;41113;41.882;12.530;2023-03-13T06:31:40;101510.28;;;12.51;74.47
54948;BME280;41113;41.882;12.530;2023-03-13T06:34:07;101513.91;;;12.61;74.51
54948;BME280;41113;41.882;12.530;2023-03-13T06:36:35;101512.84;;;12.53;74.66
54948;BME280;41113;41.882;12.530;2023-03-13T06:39:00;101518.75;;;12.67;74.63
54948;BME280;41113;41.882;12.530;2023-03-13T06:41:26;101519.09;;;12.53;74.75
54948;BME280;41113;41.882;12.530;2023-03-13T06:43:52;101521.06;;;12.51;75.28
54948;BME280;41113;41.882;12.530;2023-03-13T06:46:19;101521.13;;;12.61;74.86
54948;BME280;41113;41.882;12.530;2023-03-13T06:48:45;101526.97;;;12.45;75.28
54948;BME280;41113;41.882;12.530;2023-03-13T06:51:11;101518.88;;;12.45;75.26
54948;BME280;41113;41.882;12.530;2023-03-13T06:53:37;101522.81;;;12.41;75.48
54948;BME280;41113;41.882;12.530;2023-03-13T06:56:02;101526.09;;;12.44;75.25
54948;BME280;41113;41.882;12.530;2023-03-13T06:58:28;101530.53;;;12.34;75.70
54948;BME280;41113;41.882;12.530;2023-03-13T07:00:53;101524.28;;;12.34;75.99
54948;BME280;41113;41.882;12.530;2023-03-13T07:03:19;101529.44;;;12.37;76.00
54948;BME280;41113;41.882;12.530;2023-03-13T07:05:44;101533.47;;;12.31;76.71
54948;BME280;41113;41.882;12.530;2023-03-13T07:08:10;101536.53;;;12.38;76.55
54948;BME280;41113;41.882;12.530;2023-03-13T07:10:35;101534.06;;;12.46;76.57
54948;BME280;41113;41.882;12.530;2023-03-13T07:13:00;101530.25;;;12.49;76.56
54948;BME280;41113;41.882;12.530;2023-03-13T07:15:26;101531.38;;;12.35;77.20
54948;BME280;41113;41.882;12.530;2023-03-13T07:17:51;101536.75;;;12.35;77.80
54948;BME280;41113;41.882;12.530;2023-03-13T07:20:16;101528.22;;;12.30;78.11
54948;BME280;41113;41.882;12.530;2023-03-13T07:22:42;101537.41;;;12.38;78.69
54948;BME280;41113;41.882;12.530;2023-03-13T07:25:07;101541.41;;;12.44;78.47
54948;BME280;41113;41.882;12.530;2023-03-13T07:27:33;101545.16;;;12.53;78.60
54948;BME280;41113;41.882;12.530;2023-03-13T07:29:59;101541.56;;;12.63;77.72
54948;BME280;41113;41.882;12.530;2023-03-13T07:32:24;101550.28;;;12.88;76.90
54948;BME280;41113;41.882;12.530;2023-03-13T07:34:49;101548.06;;;12.93;76.56
54948;BME280;41113;41.882;12.530;2023-03-13T07:37:15;101545.69;;;12.99;76.45
54948;BME280;41113;41.882;12.530;2023-03-13T07:39:42;101553.53;;;13.02;76.80
54948;BME280;41113;41.882;12.530;2023-03-13T07:42:11;101555.84;;;13.07;76.29
54948;BME280;41113;41.882;12.530;2023-03-13T07:44:36;101553.59;;;13.12;76.42
54948;BME280;41113;41.882;12.530;2023-03-13T07:47:02;101552.34;;;13.16;76.55
54948;BME280;41113;41.882;12.530;2023-03-13T07:49:27;101563.03;;;13.38;75.92
54948;BME280;41113;41.882;12.530;2023-03-13T07:51:52;101564.66;;;13.51;75.08
54948;BME280;41113;41.882;12.530;2023-03-13T07:54:18;101568.25;;;13.61;74.88
54948;BME280;41113;41.882;12.530;2023-03-13T07:56:45;101568.31;;;13.70;74.39
54948;BME280;41113;41.882;12.530;2023-03-13T07:59:10;101572.38;;;13.65;74.66
54948;BME280;41113;41.882;12.530;2023-03-13T08:01:35;101568.47;;;13.69;74.51
54948;BME280;41113;41.882;12.530;2023-03-13T08:04:01;101570.63;;;13.75;74.27
54948;BME280;41113;41.882;12.530;2023-03-13T08:06:29;101568.78;;;13.76;74.03
54948;BME280;41113;41.882;12.530;2023-03-13T08:08:57;101568.25;;;13.91;73.91
54948;BME280;41113;41.882;12.530;2023-03-13T08:11:25;101563.66;;;14.13;73.36
54948;BME280;41113;41.882;12.530;2023-03-13T08:13:52;101570.31;;;14.09;72.08
54948;BME280;41113;41.882;12.530;2023-03-13T08:16:20;101567.78;;;14.17;72.41
54948;BME280;41113;41.882;12.530;2023-03-13T08:18:48;101566.94;;;14.26;72.35
54948;BME280;41113;41.882;12.530;2023-03-13T08:21:16;101567.56;;;14.39;70.94
54948;BME280;41113;41.882;12.530;2023-03-13T08:23:42;101565.28;;;14.35;70.98
54948;BME280;41113;41.882;12.530;2023-03-13T08:26:15;101562.28;;;14.38;70.79
54948;BME280;41113;41.882;12.530;2023-03-13T08:28:42;101569.31;;;14.50;71.01
54948;BME280;41113;41.882;12.530;2023-03-13T08:33:36;101569.44;;;14.58;69.17
54948;BME280;41113;41.882;12.530;2023-03-13T08:36:16;101572.47;;;14.65;69.27
54948;BME280;41113;41.882;12.530;2023-03-13T08:38:42;101567.91;;;14.65;67.80
54948;BME280;41113;41.882;12.530;2023-03-13T08:41:09;101571.31;;;14.77;68.74
54948;BME280;41113;41.882;12.530;2023-03-13T08:43:34;101572.44;;;14.93;68.74
54948;BME280;41113;41.882;12.530;2023-03-13T08:46:01;101573.47;;;15.02;67.72
54948;BME280;41113;41.882;12.530;2023-03-13T08:48:26;101577.28;;;15.09;67.63
54948;BME280;41113;41.882;12.530;2023-03-13T08:51:06;101573.00;;;15.16;67.62
54948;BME280;41113;41.882;12.530;2023-03-13T08:53:33;101581.81;;;15.38;67.89
54948;BME280;41113;41.882;12.530;2023-03-13T08:55:59;101569.97;;;15.48;67.58
54948;BME280;41113;41.882;12.530;2023-03-13T08:58:25;101561.84;;;15.48;66.39
54948;BME280;41113;41.882;12.530;2023-03-13T09:00:50;101563.09;;;15.54;66.70
54948;BME280;41113;41.882;12.530;2023-03-13T09:03:16;101564.97;;;15.63;65.63
54948;BME280;41113;41.882;12.530;2023-03-13T09:05:42;101568.59;;;15.81;66.20
54948;BME280;41113;41.882;12.530;2023-03-13T09:08:08;101566.22;;;16.06;66.02
54948;BME280;41113;41.882;12.530;2023-03-13T09:10:34;101568.53;;;16.28;65.31
54948;BME280;41113;41.882;12.530;2023-03-13T09:13:00;101567.69;;;16.45;64.96
54948;BME280;41113;41.882;12.530;2023-03-13T09:15:26;101566.72;;;16.64;64.69
54948;BME280;41113;41.882;12.530;2023-03-13T09:17:51;101571.53;;;16.88;62.57
54948;BME280;41113;41.882;12.530;2023-03-13T09:20:16;101577.66;;;16.90;63.72
54948;BME280;41113;41.882;12.530;2023-03-13T09:22:44;101591.38;;;17.06;63.58
54948;BME280;41113;41.882;12.530;2023-03-13T09:25:10;101586.16;;;17.31;63.46
54948;BME280;41113;41.882;12.530;2023-03-13T09:27:36;101588.81;;;17.49;62.86
54948;BME280;41113;41.882;12.530;2023-03-13T09:30:01;101593.16;;;17.59;62.63
54948;BME280;41113;41.882;12.530;2023-03-13T09:32:27;101593.38;;;17.66;61.84
54948;BME280;41113;41.882;12.530;2023-03-13T09:34:52;101599.06;;;17.81;61.51
54948;BME280;41113;41.882;12.530;2023-03-13T09:37:18;101589.25;;;17.88;61.46
54948;BME280;41113;41.882;12.530;2023-03-13T09:39:43;101585.22;;;17.92;60.87
54948;BME280;41113;41.882;12.530;2023-03-13T09:42:21;101582.13;;;17.87;58.82
54948;BME280;41113;41.882;12.530;2023-03-13T09:44:52;101587.97;;;18.00;60.51
54948;BME280;41113;41.882;12.530;2023-03-13T09:47:25;101578.16;;;18.07;60.16
54948;BME280;41113;41.882;12.530;2023-03-13T09:50:02;101585.00;;;18.19;58.68
54948;BME280;41113;41.882;12.530;2023-03-13T09:52:33;101575.88;;;18.28;59.52
54948;BME280;41113;41.882;12.530;2023-03-13T10:00:39;101588.84;;;18.51;58.30
54948;BME280;41113;41.882;12.530;2023-03-13T10:03:16;101586.84;;;18.61;55.23
54948;BME280;41113;41.882;12.530;2023-03-13T10:05:50;101571.56;;;18.68;56.84
54948;BME280;41113;41.882;12.530;2023-03-13T10:08:31;101580.59;;;18.77;53.96
54948;BME280;41113;41.882;12.530;2023-03-13T10:11:06;101584.16;;;18.77;56.08
54948;BME280;41113;41.882;12.530;2023-03-13T10:16:19;101572.97;;;18.88;52.16
54948;BME280;41113;41.882;12.530;2023-03-13T10:18:48;101572.63;;;18.91;55.29
54948;BME280;41113;41.882;12.530;2023-03-13T10:21:19;101568.38;;;19.05;55.69
54948;BME280;41113;41.882;12.530;2023-03-13T10:23:54;101564.13;;;19.19;55.67
54948;BME280;41113;41.882;12.530;2023-03-13T10:26:28;101571.28;;;19.20;54.84
54948;BME280;41113;41.882;12.530;2023-03-13T10:28:55;101564.13;;;19.19;55.21
54948;BME280;41113;41.882;12.530;2023-03-13T10:31:32;101565.13;;;19.18;55.14
54948;BME280;41113;41.882;12.530;2023-03-13T10:34:09;101562.25;;;19.27;53.31
54948;BME280;41113;41.882;12.530;2023-03-13T10:36:41;101559.16;;;19.39;55.03
54948;BME280;41113;41.882;12.530;2023-03-13T10:39:11;101564.13;;;19.19;54.88
54948;BME280;41113;41.882;12.530;2023-03-13T10:41:38;101560.72;;;19.01;53.52
54948;BME280;41113;41.882;12.530;2023-03-13T10:44:22;101547.78;;;18.86;53.17
54948;BME280;41113;41.882;12.530;2023-03-13T10:46:49;101551.03;;;18.98;55.06
54948;BME280;41113;41.882;12.530;2023-03-13T10:49:18;101544.19;;;19.10;55.34
54948;BME280;41113;41.882;12.530;2023-03-13T10:51:51;101542.50;;;19.17;55.13
54948;BME280;41113;41.882;12.530;2023-03-13T10:56:51;101538.56;;;19.36;54.99
54948;BME280;41113;41.882;12.530;2023-03-13T10:59:21;101537.00;;;19.42;55.05
54948;BME280;41113;41.882;12.530;2023-03-13T11:01:47;101541.94;;;19.46;55.31
54948;BME280;41113;41.882;12.530;2023-03-13T11:04:27;101536.19;;;19.33;53.92
54948;BME280;41113;41.882;12.530;2023-03-13T11:07:00;101536.88;;;19.35;55.30
54948;BME280;41113;41.882;12.530;2023-03-13T11:09:26;101532.75;;;19.39;55.43
54948;BME280;41113;41.882;12.530;2023-03-13T11:11:54;101539.09;;;19.23;55.62
54948;BME280;41113;41.882;12.530;2023-03-13T11:14:22;101538.56;;;19.36;56.04
54948;BME280;41113;41.882;12.530;2023-03-13T11:16:50;101534.13;;;19.43;55.92
54948;BME280;41113;41.882;12.530;2023-03-13T11:22:27;101536.13;;;19.49;55.82
54948;BME280;41113;41.882;12.530;2023-03-13T11:25:16;101530.00;;;19.47;55.67
54948;BME280;41113;41.882;12.530;2023-03-13T11:33:21;101540.25;;;19.37;56.31
54948;BME280;41113;41.882;12.530;2023-03-13T11:43:36;101536.84;;;19.51;56.41
54948;BME280;41113;41.882;12.530;2023-03-13T11:46:17;101533.41;;;19.49;56.12
54948;BME280;41113;41.882;12.530;2023-03-13T11:49:29;101517.06;;;19.49;55.79
54948;BME280;41113;41.882;12.530;2023-03-13T11:54:56;101508.22;;;19.47;56.36
54948;BME280;41113;41.882;12.530;2023-03-13T11:57:32;101514.03;;;19.52;56.91
54948;BME280;41113;41.882;12.530;2023-03-13T12:02:38;101505.00;;;19.52;56.58
54948;BME280;41113;41.882;12.530;2023-03-13T12:05:10;101507.22;;;19.40;56.66
54948;BME280;41113;41.882;12.530;2023-03-13T12:07:41;101509.63;;;19.35;57.03
54948;BME280;41113;41.882;12.530;2023-03-13T12:10:33;101506.22;;;19.33;56.29
54948;BME280;41113;41.882;12.530;2023-03-13T12:13:07;101497.72;;;19.28;57.00
54948;BME280;41113;41.882;12.530;2023-03-13T12:15:39;101496.03;;;19.27;57.36
54948;BME280;41113;41.882;12.530;2023-03-13T12:20:52;101503.88;;;19.22;57.28
54948;BME280;41113;41.882;12.530;2023-03-13T12:26:04;101487.53;;;19.22;56.99
54948;BME280;41113;41.882;12.530;2023-03-13T12:28:40;101480.69;;;19.18;56.34
54948;BME280;41113;41.882;12.530;2023-03-13T12:31:33;101476.63;;;19.14;56.16
54948;BME280;41113;41.882;12.530;2023-03-13T12:34:21;101471.72;;;19.09;57.03
54948;BME280;41113;41.882;12.530;2023-03-13T12:36:56;101461.66;;;19.10;57.42
54948;BME280;41113;41.882;12.530;2023-03-13T12:39:36;101455.91;;;19.05;57.22
54948;BME280;41113;41.882;12.530;2023-03-13T12:42:18;101460.66;;;19.03;56.60
54948;BME280;41113;41.882;12.530;2023-03-13T12:44:47;101442.28;;;19.05;57.02
54948;BME280;41113;41.882;12.530;2023-03-13T12:47:25;101446.03;;;19.04;57.08
54948;BME280;41113;41.882;12.530;2023-03-13T12:52:42;101436.88;;;18.88;56.95
54948;BME280;41113;41.882;12.530;2023-03-13T12:58:38;101443.31;;;18.95;55.27
54948;BME280;41113;41.882;12.530;2023-03-13T13:01:06;101441.63;;;18.94;56.54
54948;BME280;41113;41.882;12.530;2023-03-13T13:03:37;101436.19;;;18.94;54.30
54948;BME280;41113;41.882;12.530;2023-03-13T13:08:36;101420.00;;;19.01;55.38
54948;BME280;41113;41.882;12.530;2023-03-13T13:11:34;101416.59;;;18.99;53.30
54948;BME280;41113;41.882;12.530;2023-03-13T13:14:00;101422.06;;;18.99;54.63
54948;BME280;41113;41.882;12.530;2023-03-13T13:16:27;101427.31;;;19.01;54.99
54948;BME280;41113;41.882;12.530;2023-03-13T13:18:53;101415.06;;;19.05;54.86
54948;BME280;41113;41.882;12.530;2023-03-13T13:23:47;101420.84;;;19.02;55.57
54948;BME280;41113;41.882;12.530;2023-03-13T13:36:53;101411.69;;;18.94;54.87
54948;BME280;41113;41.882;12.530;2023-03-13T13:39:44;101404.22;;;18.88;54.26
54948;BME280;41113;41.882;12.530;2023-03-13T13:45:01;101401.50;;;18.88;55.11
54948;BME280;41113;41.882;12.530;2023-03-13T13:47:28;101399.44;;;18.90;55.00
54948;BME280;41113;41.882;12.530;2023-03-13T13:49:56;101398.25;;;18.85;54.01
54948;BME280;41113;41.882;12.530;2023-03-13T13:52:40;101387.34;;;18.85;54.84
54948;BME280;41113;41.882;12.530;2023-03-13T13:57:48;101390.59;;;18.80;54.61